Time;durP1;ratioP1;P1;durP2;ratioP2;P2;SDS_P1;SDS_P2;PMS_P1;PMS_P2;Temp;Humidity;BMP_temperature;BMP_pressure;BME280_temperature;BME280_humidity;BME280_pressure;Samples;Min_cycle;Max_cycle;Signal;HPM_P1;HPM_P2
2023/04/23 00:02:05;;;;;;;78.03;49.25;;;9.90;99.90;;;;;;4984102;28;20038;-85
2023/04/23 00:04:33;;;;;;;84.10;53.40;;;10.20;99.90;;;;;;5003378;28;20107;-85
2023/04/23 00:07:01;;;;;;;87.28;49.58;;;9.90;99.90;;;;;;4991361;28;20498;-85
2023/04/23 00:09:30;;;;;;;73.88;47.13;;;9.90;99.90;;;;;;4980693;28;20364;-85
2023/04/23 00:11:56;;;;;;;70.03;47.45;;;9.90;99.90;;;;;;4987791;28;20037;-85
2023/04/23 00:14:22;;;;;;;69.63;47.83;;;10.00;99.90;;;;;;4992783;28;20045;-85
2023/04/23 00:16:48;;;;;;;81.55;47.80;;;11.40;99.90;;;;;;4979784;28;20422;-85
2023/04/23 00:19:14;;;;;;;80.05;48.40;;;9.90;99.90;;;;;;4977076;28;20034;-85
2023/04/23 00:21:39;;;;;;;75.45;48.08;;;10.00;99.90;;;;;;4995831;28;20038;-85
2023/04/23 00:24:05;;;;;;;79.82;50.67;;;11.80;99.90;;;;;;4996056;28;20045;-85
2023/04/23 00:26:31;;;;;;;82.53;50.40;;;10.00;99.90;;;;;;5007137;28;20096;-85
2023/04/23 00:28:56;;;;;;;77.20;49.33;;;11.00;99.90;;;;;;4983743;28;20046;-85
2023/04/23 00:31:23;;;;;;;74.88;53.90;;;9.90;99.90;;;;;;4986495;28;20726;-85
2023/04/23 00:33:49;;;;;;;69.82;45.67;;;9.90;99.90;;;;;;5003189;28;20517;-85
2023/04/23 00:36:14;;;;;;;73.53;45.90;;;10.00;99.90;;;;;;4985984;28;20049;-85
2023/04/23 00:38:40;;;;;;;72.70;50.85;;;9.80;99.90;;;;;;5003600;28;20117;-85
2023/04/23 00:41:06;;;;;;;74.72;47.70;;;9.90;99.90;;;;;;4993906;28;20042;-85
2023/04/23 00:43:32;;;;;;;73.10;50.20;;;9.90;99.90;;;;;;4980873;28;20226;-85
2023/04/23 00:45:59;;;;;;;75.95;50.13;;;10.00;99.90;;;;;;4979206;28;20037;-85
2023/04/23 00:48:24;;;;;;;69.28;47.00;;;9.90;99.90;;;;;;4980548;28;20113;-85
2023/04/23 00:50:59;;;;;;;75.35;48.88;;;10.00;99.90;;;;;;4980705;28;20594;-86
2023/04/23 00:53:25;;;;;;;77.00;48.63;;;11.80;99.90;;;;;;4999895;28;20053;-85
2023/04/23 00:55:51;;;;;;;79.40;53.40;;;11.60;99.90;;;;;;4980497;28;20057;-85
2023/04/23 00:58:17;;;;;;;79.60;49.10;;;10.00;99.90;;;;;;4980936;28;20042;-85
2023/04/23 01:00:45;;;;;;;69.82;50.75;;;9.80;99.90;;;;;;4986481;28;20111;-85
2023/04/23 01:03:11;;;;;;;75.22;49.15;;;9.80;99.90;;;;;;5009967;28;20145;-85
2023/04/23 01:05:40;;;;;;;76.78;51.38;;;9.80;99.90;;;;;;4980181;28;20117;-86
2023/04/23 01:08:06;;;;;;;83.53;53.17;;;9.80;99.90;;;;;;5000883;28;20077;-85
2023/04/23 01:10:32;;;;;;;86.03;55.03;;;9.90;99.90;;;;;;5004800;28;20078;-85
2023/04/23 01:12:58;;;;;;;84.93;57.10;;;9.90;99.90;;;;;;4979777;28;20073;-86
2023/04/23 01:15:24;;;;;;;91.07;60.50;;;10.00;99.90;;;;;;4982703;28;20056;-86
2023/04/23 01:17:49;;;;;;;80.03;54.90;;;11.30;99.90;;;;;;4992442;28;20038;-85
2023/04/23 01:20:15;;;;;;;94.45;57.75;;;9.90;99.90;;;;;;4984586;28;20041;-86
2023/04/23 01:22:41;;;;;;;97.18;56.90;;;9.90;99.90;;;;;;5000746;28;20537;-85
2023/04/23 01:25:07;;;;;;;89.22;58.15;;;11.90;99.90;;;;;;4992342;28;20042;-85
2023/04/23 01:27:34;;;;;;;84.07;54.20;;;9.90;99.90;;;;;;4995365;28;20104;-86
2023/04/23 01:30:03;;;;;;;81.20;53.25;;;9.90;99.90;;;;;;4992086;28;20076;-86
2023/04/23 01:32:30;;;;;;;89.28;51.53;;;9.70;99.90;;;;;;4992822;28;20129;-86
2023/04/23 01:34:56;;;;;;;81.88;49.33;;;9.90;99.90;;;;;;5006540;28;20058;-85
2023/04/23 01:37:23;;;;;;;79.47;51.13;;;9.90;99.90;;;;;;5007751;28;20057;-86
2023/04/23 01:39:50;;;;;;;73.10;49.47;;;10.10;99.90;;;;;;5004844;28;20517;-86
2023/04/23 01:42:15;;;;;;;72.30;48.70;;;12.10;99.90;;;;;;4987264;28;20044;-85
2023/04/23 01:44:41;;;;;;;72.38;53.92;;;9.80;99.90;;;;;;4996235;28;20680;-86
2023/04/23 01:47:07;;;;;;;70.05;52.60;;;9.70;99.90;;;;;;4994233;28;20045;-86
2023/04/23 01:49:33;;;;;;;80.53;49.50;;;9.40;99.90;;;;;;5005074;28;20459;-86
2023/04/23 01:51:58;;;;;;;84.03;55.80;;;10.40;99.90;;;;;;4996929;28;20042;-86
2023/04/23 01:54:24;;;;;;;111.20;57.72;;;10.20;99.90;;;;;;4995779;28;20046;-86
2023/04/23 01:56:53;;;;;;;94.35;56.67;;;10.90;99.90;;;;;;4988022;28;20132;-86
2023/04/23 01:59:20;;;;;;;105.65;58.40;;;9.30;99.90;;;;;;4978552;28;20042;-86
2023/04/23 02:01:46;;;;;;;123.35;50.58;;;9.30;99.90;;;;;;4997158;28;20150;-86
2023/04/23 02:04:13;;;;;;;148.88;55.05;;;11.40;99.90;;;;;;4994902;28;20096;-86
2023/04/23 02:06:44;;;;;;;414.77;73.57;;;9.60;99.90;;;;;;4979493;28;20038;-86
2023/04/23 02:09:10;;;;;;;524.97;78.50;;;9.50;99.90;;;;;;4993019;28;20049;-86
2023/04/23 02:11:39;;;;;;;589.88;82.18;;;10.60;99.90;;;;;;5004805;28;20060;-86
2023/04/23 02:14:05;;;;;;;525.83;75.80;;;9.40;99.90;;;;;;4985553;28;20050;-86
2023/04/23 02:16:31;;;;;;;830.45;94.65;;;9.30;99.90;;;;;;5006128;28;20127;-86
2023/04/23 02:18:57;;;;;;;304.58;47.55;;;9.30;99.90;;;;;;4992232;28;20041;-86
2023/04/23 02:21:24;;;;;;;383.60;67.75;;;9.60;99.90;;;;;;5000818;28;20068;-86
2023/04/23 02:23:50;;;;;;;229.45;57.60;;;9.60;99.90;;;;;;4981055;28;20037;-86
2023/04/23 02:26:16;;;;;;;326.67;63.65;;;10.60;99.90;;;;;;4979949;28;20042;-86
2023/04/23 02:28:41;;;;;;;251.68;54.28;;;9.70;99.90;;;;;;5007123;28;20038;-86
2023/04/23 02:31:07;;;;;;;336.33;62.47;;;11.10;99.90;;;;;;4988126;28;20033;-86
2023/04/23 02:33:33;;;;;;;437.63;60.42;;;9.20;99.90;;;;;;5000352;28;20170;-86
2023/04/23 02:35:58;;;;;;;390.35;69.15;;;10.30;99.90;;;;;;4985722;28;20128;-85
2023/04/23 02:38:24;;;;;;;382.30;68.25;;;11.00;99.90;;;;;;4984559;28;20520;-85
2023/04/23 02:40:49;;;;;;;361.77;85.85;;;9.80;99.90;;;;;;5004907;28;20330;-85
2023/04/23 02:43:15;;;;;;;272.40;68.32;;;9.50;99.90;;;;;;4980288;28;20045;-85
2023/04/23 02:45:40;;;;;;;304.67;58.45;;;10.00;99.90;;;;;;4982690;28;20037;-86
2023/04/23 02:48:06;;;;;;;386.83;75.78;;;9.60;99.90;;;;;;4985176;28;20441;-85
2023/04/23 02:50:32;;;;;;;541.22;96.10;;;11.20;99.90;;;;;;4995341;28;20043;-86
2023/04/23 02:52:57;;;;;;;386.60;75.25;;;10.20;99.90;;;;;;4995047;28;20592;-85
2023/04/23 02:55:24;;;;;;;386.88;80.28;;;10.20;99.90;;;;;;4991291;28;20104;-85
2023/04/23 02:57:50;;;;;;;632.53;90.28;;;11.30;99.90;;;;;;4985410;28;20038;-85
2023/04/23 03:00:17;;;;;;;287.80;54.92;;;10.10;99.90;;;;;;4981163;28;20117;-85
2023/04/23 03:02:42;;;;;;;480.58;75.97;;;9.50;99.90;;;;;;5007201;28;20084;-85
2023/04/23 03:05:08;;;;;;;305.83;63.08;;;9.60;99.90;;;;;;4998298;28;20447;-85
2023/04/23 03:07:34;;;;;;;448.35;82.70;;;10.00;99.90;;;;;;5006608;28;20042;-85
2023/04/23 03:09:59;;;;;;;498.48;82.85;;;9.60;99.90;;;;;;4983159;28;20129;-85
2023/04/23 03:12:25;;;;;;;585.40;84.57;;;10.80;99.90;;;;;;4982412;28;20057;-85
2023/04/23 03:14:50;;;;;;;386.55;64.70;;;11.90;99.90;;;;;;5001901;28;20048;-85
2023/04/23 03:17:16;;;;;;;394.15;70.50;;;10.10;99.90;;;;;;5002717;28;20046;-85
2023/04/23 03:19:42;;;;;;;335.83;72.05;;;10.10;99.90;;;;;;4975699;28;20045;-85
2023/04/23 03:22:07;;;;;;;289.30;64.63;;;12.30;99.90;;;;;;4992210;28;20499;-85
2023/04/23 03:24:34;;;;;;;313.05;79.38;;;10.30;99.90;;;;;;4985074;28;20041;-85
2023/04/23 03:26:59;;;;;;;405.63;73.72;;;9.80;99.90;;;;;;4982821;28;20038;-85
2023/04/23 03:29:25;;;;;;;334.33;83.03;;;10.40;99.90;;;;;;4983355;28;20077;-85
2023/04/23 03:31:51;;;;;;;401.60;91.20;;;10.50;99.90;;;;;;4986669;28;20460;-85
2023/04/23 03:34:17;;;;;;;379.23;84.78;;;10.50;99.90;;;;;;4984792;28;20042;-85
2023/04/23 03:36:43;;;;;;;684.08;117.93;;;10.50;99.90;;;;;;4983015;28;20056;-85
2023/04/23 03:39:09;;;;;;;707.55;122.97;;;10.20;99.90;;;;;;5007972;28;20050;-85
2023/04/23 03:41:35;;;;;;;562.70;111.68;;;10.70;99.90;;;;;;5006134;28;20401;-85
2023/04/23 03:44:00;;;;;;;925.30;159.50;;;10.80;99.90;;;;;;4975170;28;20026;-85
2023/04/23 03:46:26;;;;;;;416.80;104.43;;;10.70;99.90;;;;;;4973516;28;20172;-85
2023/04/23 03:48:51;;;;;;;275.30;69.05;;;12.40;99.90;;;;;;4996366;28;20050;-85
2023/04/23 03:51:17;;;;;;;369.25;90.45;;;12.90;99.90;;;;;;5000183;28;20096;-86
2023/04/23 03:53:44;;;;;;;312.38;102.60;;;12.20;99.90;;;;;;4990839;28;20503;-85
2023/04/23 03:56:10;;;;;;;221.43;94.63;;;10.60;99.90;;;;;;4977392;28;20057;-85
2023/04/23 03:58:36;;;;;;;222.13;99.88;;;11.20;99.90;;;;;;4991069;28;20587;-85
2023/04/23 04:01:01;;;;;;;215.68;90.28;;;11.30;99.90;;;;;;4976687;28;20121;-85
2023/04/23 04:03:27;;;;;;;240.82;103.32;;;10.80;99.90;;;;;;4997709;28;20096;-85
2023/04/23 04:05:53;;;;;;;232.38;96.50;;;11.40;99.90;;;;;;5006116;28;20044;-86
2023/04/23 04:08:19;;;;;;;197.73;91.47;;;12.30;99.90;;;;;;4995526;28;20428;-86
2023/04/23 04:10:44;;;;;;;239.32;104.60;;;12.60;99.90;;;;;;4999431;28;20502;-85
2023/04/23 04:13:10;;;;;;;197.20;95.72;;;10.90;99.90;;;;;;4979694;28;20058;-85
2023/04/23 04:15:36;;;;;;;160.35;82.30;;;13.50;99.90;;;;;;4978826;28;20042;-85
2023/04/23 04:18:02;;;;;;;192.43;97.18;;;13.10;99.90;;;;;;4978658;28;20124;-86
2023/04/23 04:20:27;;;;;;;217.10;97.43;;;10.90;99.90;;;;;;4991197;28;20121;-85
2023/04/23 04:22:54;;;;;;;192.68;96.20;;;11.70;99.90;;;;;;4992734;28;20173;-85
2023/04/23 04:25:21;;;;;;;196.80;100.63;;;11.50;99.90;;;;;;4982838;28;20545;-85
2023/04/23 04:27:47;;;;;;;201.55;102.80;;;11.80;99.90;;;;;;4990499;28;20038;-85
2023/04/23 04:30:13;;;;;;;216.77;109.55;;;11.80;99.90;;;;;;4975456;28;20306;-85
2023/04/23 04:32:39;;;;;;;239.20;113.55;;;11.50;99.90;;;;;;4996523;28;20041;-85
2023/04/23 04:35:07;;;;;;;211.73;106.32;;;11.80;99.90;;;;;;4987090;28;20034;-85
2023/04/23 04:37:34;;;;;;;258.05;113.88;;;11.80;99.90;;;;;;4997779;28;20053;-85
2023/04/23 04:40:00;;;;;;;259.88;120.80;;;11.50;99.90;;;;;;4986219;28;21954;-85
2023/04/23 04:42:26;;;;;;;260.67;123.00;;;12.00;99.90;;;;;;4990534;28;20038;-85
2023/04/23 04:44:51;;;;;;;224.05;111.65;;;13.00;99.90;;;;;;4997692;28;20051;-85
2023/04/23 04:47:17;;;;;;;212.60;108.18;;;11.70;99.90;;;;;;4990067;28;20124;-85
2023/04/23 04:49:43;;;;;;;206.75;106.85;;;11.40;99.90;;;;;;4982512;28;20049;-86
2023/04/23 04:52:10;;;;;;;212.38;111.82;;;12.50;99.90;;;;;;4989964;28;20038;-85
2023/04/23 04:54:35;;;;;;;265.85;131.80;;;11.50;99.90;;;;;;4982819;28;20033;-85
2023/04/23 04:57:01;;;;;;;235.23;123.45;;;11.90;99.90;;;;;;4996137;28;20086;-85
2023/04/23 04:59:27;;;;;;;212.05;111.28;;;13.00;99.90;;;;;;4997669;28;20440;-85
2023/04/23 05:01:52;;;;;;;239.57;129.32;;;11.60;99.90;;;;;;4973322;28;20042;-85
2023/04/23 05:04:18;;;;;;;223.45;128.68;;;12.90;99.90;;;;;;4975217;28;20116;-85
2023/04/23 05:06:43;;;;;;;174.20;103.90;;;12.30;99.90;;;;;;5003998;28;20108;-86
2023/04/23 05:09:10;;;;;;;213.27;111.43;;;13.90;99.90;;;;;;4995516;28;20081;-85
2023/04/23 05:11:36;;;;;;;207.13;109.70;;;12.40;99.90;;;;;;4983758;28;20038;-85
2023/04/23 05:14:03;;;;;;;203.48;106.78;;;12.20;99.90;;;;;;4993892;28;20387;-85
2023/04/23 05:16:28;;;;;;;198.05;110.53;;;13.50;99.90;;;;;;4999146;28;20516;-85
2023/04/23 05:18:54;;;;;;;182.45;102.55;;;11.80;99.90;;;;;;4996731;28;20042;-85
2023/04/23 05:21:20;;;;;;;209.48;126.40;;;11.80;99.90;;;;;;5007535;28;20041;-85
2023/04/23 05:23:45;;;;;;;212.38;122.13;;;13.90;99.90;;;;;;5004395;28;20773;-85
2023/04/23 05:26:11;;;;;;;201.98;111.78;;;12.50;99.90;;;;;;4975724;28;20044;-85
2023/04/23 05:28:37;;;;;;;189.73;112.25;;;12.70;99.90;;;;;;4976807;28;20113;-86
2023/04/23 05:31:02;;;;;;;190.60;115.15;;;12.80;99.90;;;;;;4984680;28;20038;-85
2023/04/23 05:33:28;;;;;;;183.30;108.65;;;13.50;99.90;;;;;;4991666;28;20046;-85
2023/04/23 05:35:54;;;;;;;170.43;99.85;;;14.50;99.90;;;;;;5010645;28;20497;-85
2023/04/23 05:38:19;;;;;;;162.27;104.22;;;12.70;99.90;;;;;;4987893;28;20494;-85
2023/04/23 05:40:45;;;;;;;154.60;102.75;;;13.30;99.90;;;;;;4992698;28;20042;-85
2023/04/23 05:43:11;;;;;;;142.00;91.75;;;12.00;99.90;;;;;;5003555;28;20505;-85
2023/04/23 05:45:37;;;;;;;142.85;90.78;;;12.70;99.90;;;;;;4986740;28;20092;-85
2023/04/23 05:48:02;;;;;;;163.45;101.90;;;13.10;99.90;;;;;;5013196;28;20743;-85
2023/04/23 05:50:28;;;;;;;173.52;106.88;;;12.40;99.90;;;;;;4992991;28;20042;-85
2023/04/23 05:52:54;;;;;;;158.88;98.32;;;13.20;99.90;;;;;;5003931;28;20091;-85
2023/04/23 05:55:20;;;;;;;152.93;93.80;;;13.90;99.90;;;;;;4983449;28;20630;-85
2023/04/23 05:57:46;;;;;;;138.75;91.88;;;12.70;99.90;;;;;;4999851;28;20053;-85
2023/04/23 06:00:12;;;;;;;170.60;103.40;;;13.50;99.90;;;;;;4987216;28;20122;-85
2023/04/23 06:02:38;;;;;;;143.80;96.18;;;12.50;99.90;;;;;;4980344;28;20121;-85
2023/04/23 06:05:05;;;;;;;159.30;108.53;;;14.60;99.90;;;;;;4985948;28;20038;-85
2023/04/23 06:07:31;;;;;;;136.88;87.22;;;12.70;99.90;;;;;;4992851;28;20129;-85
2023/04/23 06:09:57;;;;;;;159.60;105.63;;;14.10;99.90;;;;;;5003652;28;20137;-85
2023/04/23 06:12:23;;;;;;;170.48;118.68;;;13.20;99.90;;;;;;4995425;28;20046;-85
2023/04/23 06:14:48;;;;;;;148.00;94.53;;;12.40;99.90;;;;;;5001875;28;20099;-85
2023/04/23 06:17:14;;;;;;;153.95;99.13;;;15.10;99.90;;;;;;4994210;28;20129;-85
2023/04/23 06:19:40;;;;;;;152.80;103.50;;;12.70;99.90;;;;;;4983599;28;20034;-85
2023/04/23 06:22:06;;;;;;;153.57;101.13;;;12.80;99.90;;;;;;4975774;28;20038;-85
2023/04/23 06:24:31;;;;;;;147.13;103.78;;;12.80;99.90;;;;;;4992397;28;20116;-85
2023/04/23 06:26:57;;;;;;;143.60;99.55;;;13.00;99.90;;;;;;4984797;28;20447;-85
2023/04/23 06:29:23;;;;;;;143.60;100.63;;;14.80;99.90;;;;;;4975043;28;20080;-85
2023/04/23 06:31:48;;;;;;;131.05;85.88;;;13.70;99.90;;;;;;5003756;28;20050;-85
2023/04/23 06:34:14;;;;;;;128.50;93.78;;;14.90;99.90;;;;;;4991002;28;20046;-85
2023/04/23 06:36:40;;;;;;;148.13;95.63;;;13.10;99.90;;;;;;4990834;28;20046;-86
2023/04/23 06:39:05;;;;;;;149.57;97.75;;;13.00;99.90;;;;;;4997639;28;20060;-85
2023/04/23 06:41:31;;;;;;;143.45;99.90;;;14.80;99.90;;;;;;4997716;28;20045;-85
2023/04/23 06:43:56;;;;;;;165.77;104.57;;;14.20;99.90;;;;;;4996201;28;20041;-85
2023/04/23 06:46:22;;;;;;;142.35;96.10;;;14.20;99.90;;;;;;4988431;28;20039;-85
2023/04/23 06:48:48;;;;;;;178.63;127.28;;;14.00;99.90;;;;;;4999657;28;20033;-85
2023/04/23 06:51:13;;;;;;;145.43;97.47;;;14.30;99.90;;;;;;4998887;28;20045;-85
2023/04/23 06:53:39;;;;;;;157.68;111.95;;;13.60;99.90;;;;;;5006222;28;20042;-84
2023/04/23 06:56:05;;;;;;;146.88;98.47;;;14.40;99.90;;;;;;4999760;28;20685;-85
2023/04/23 06:58:31;;;;;;;156.82;110.13;;;13.70;99.90;;;;;;5003451;28;20046;-85
2023/04/23 07:01:02;;;;;;;145.30;103.40;;;15.90;99.90;;;;;;4982807;28;20034;-85
2023/04/23 07:03:29;;;;;;;153.43;109.28;;;14.70;99.90;;;;;;4995640;28;20034;-84
2023/04/23 07:05:58;;;;;;;222.15;160.75;;;14.90;99.90;;;;;;5002957;28;20038;-85
2023/04/23 07:08:23;;;;;;;155.43;113.65;;;15.60;99.90;;;;;;4983494;28;20581;-84
2023/04/23 07:10:50;;;;;;;136.80;102.90;;;14.80;99.90;;;;;;4996159;28;20133;-85
2023/04/23 07:13:16;;;;;;;153.65;116.60;;;14.30;99.90;;;;;;4997913;28;20046;-84
2023/04/23 07:15:42;;;;;;;160.75;119.28;;;14.70;99.90;;;;;;4999610;28;20046;-85
2023/04/23 07:18:08;;;;;;;133.50;105.70;;;14.90;99.90;;;;;;4987422;28;20410;-85
2023/04/23 07:20:34;;;;;;;136.05;105.38;;;15.00;99.90;;;;;;4983740;28;20034;-84
2023/04/23 07:23:00;;;;;;;150.98;118.43;;;15.80;99.90;;;;;;4995971;28;20125;-85
2023/04/23 07:25:26;;;;;;;139.55;114.10;;;15.60;99.90;;;;;;4996664;28;20116;-84
2023/04/23 07:27:53;;;;;;;130.52;99.57;;;16.00;99.90;;;;;;5005814;28;20045;-85
2023/04/23 07:30:19;;;;;;;111.30;90.53;;;15.60;99.90;;;;;;4989524;28;20046;-86
2023/04/23 07:32:45;;;;;;;127.85;101.13;;;15.90;99.90;;;;;;5007032;28;20045;-86
2023/04/23 07:35:11;;;;;;;125.25;99.88;;;16.00;99.90;;;;;;5002737;28;20038;-86
2023/04/23 07:37:37;;;;;;;148.35;113.03;;;16.40;99.90;;;;;;4974258;28;20043;-85
2023/04/23 07:40:04;;;;;;;119.57;96.18;;;16.00;99.90;;;;;;4995729;28;20494;-85
2023/04/23 07:42:30;;;;;;;111.88;89.07;;;16.10;99.90;;;;;;4995202;28;20038;-86
2023/04/23 07:44:56;;;;;;;102.32;82.07;;;16.30;99.90;;;;;;4989438;28;20038;-86
2023/04/23 07:47:21;;;;;;;117.40;95.35;;;16.40;99.90;;;;;;4989197;28;20077;-86
2023/04/23 07:49:47;;;;;;;107.75;87.30;;;16.50;99.90;;;;;;4993031;28;21822;-86
2023/04/23 07:52:14;;;;;;;89.28;75.82;;;16.30;99.90;;;;;;4979860;28;20064;-85
2023/04/23 07:54:42;;;;;;;78.28;65.93;;;18.40;99.90;;;;;;4984621;28;20038;-85
2023/04/23 07:57:09;;;;;;;81.65;69.90;;;17.30;99.90;;;;;;4975363;28;20549;-86
2023/04/23 07:59:35;;;;;;;68.20;60.15;;;16.70;99.90;;;;;;5004288;28;20054;-85
2023/04/23 08:02:00;;;;;;;59.80;51.75;;;18.30;99.90;;;;;;5008472;28;20045;-85
2023/04/23 08:04:26;;;;;;;77.68;66.03;;;18.10;99.90;;;;;;5009131;28;20037;-85
2023/04/23 08:06:51;;;;;;;76.65;68.28;;;19.20;99.90;;;;;;4986231;28;20109;-86
2023/04/23 08:09:17;;;;;;;81.20;68.47;;;18.80;99.90;;;;;;4991909;28;20042;-85
2023/04/23 08:11:43;;;;;;;58.55;52.10;;;18.10;99.90;;;;;;4991366;28;20564;-86
2023/04/23 08:14:08;;;;;;;70.95;63.35;;;18.00;99.90;;;;;;5009101;28;20589;-85
2023/04/23 08:16:34;;;;;;;46.45;40.30;;;18.90;99.90;;;;;;4988332;28;20038;-85
2023/04/23 08:19:00;;;;;;;58.05;51.78;;;18.20;99.90;;;;;;5000739;28;20556;-85
2023/04/23 08:21:26;;;;;;;48.40;41.70;;;18.80;99.90;;;;;;4992646;28;20069;-85
2023/04/23 08:23:52;;;;;;;50.13;44.40;;;18.90;99.90;;;;;;4997972;28;20498;-85
2023/04/23 08:26:17;;;;;;;51.42;44.92;;;20.20;99.90;;;;;;4978942;28;20034;-85
2023/04/23 08:28:44;;;;;;;47.50;40.78;;;18.80;99.90;;;;;;4991983;28;20042;-86
2023/04/23 08:31:10;;;;;;;47.78;40.60;;;19.00;99.90;;;;;;5001172;28;20078;-86
2023/04/23 08:33:35;;;;;;;51.92;46.33;;;19.80;99.90;;;;;;5005986;28;20771;-85
2023/04/23 08:36:01;;;;;;;56.60;50.55;;;18.60;99.90;;;;;;4992286;28;20050;-86
2023/04/23 08:38:27;;;;;;;42.33;37.85;;;18.60;99.90;;;;;;4983297;28;20395;-85
2023/04/23 08:40:56;;;;;;;55.58;46.05;;;18.70;99.90;;;;;;4989066;28;20057;-85
2023/04/23 08:43:34;;;;;;;43.80;35.55;;;18.90;99.90;;;;;;4985997;28;20049;-86
2023/04/23 08:46:05;;;;;;;42.42;36.88;;;19.10;99.90;;;;;;4989123;28;20045;-85
2023/04/23 08:48:33;;;;;;;45.20;37.15;;;19.10;99.90;;;;;;4973223;28;20069;-85
2023/04/23 08:51:01;;;;;;;37.55;33.05;;;20.90;99.90;;;;;;4973075;28;20046;-86
2023/04/23 08:53:27;;;;;;;50.38;40.53;;;19.20;99.90;;;;;;5000131;28;20042;-86
2023/04/23 08:55:55;;;;;;;45.88;41.15;;;19.90;99.90;;;;;;4998634;28;20082;-85
2023/04/23 08:58:21;;;;;;;46.00;40.97;;;19.40;99.90;;;;;;4995161;28;20421;-86
2023/04/23 09:00:49;;;;;;;42.13;34.78;;;19.90;1.00;;;;;;4988176;28;20030;-86
2023/04/23 09:03:16;;;;;;;38.25;34.15;;;18.30;1.00;;;;;;5010009;28;20417;-85
2023/04/23 09:05:43;;;;;;;44.58;39.80;;;17.70;1.00;;;;;;4989096;28;20105;-86
2023/04/23 09:08:09;;;;;;;46.38;41.45;;;18.20;99.90;;;;;;4993071;28;20108;-86
2023/04/23 09:10:38;;;;;;;46.47;41.63;;;19.80;99.90;;;;;;4992258;28;20042;-85
2023/04/23 09:13:03;;;;;;;46.13;39.53;;;19.50;1.00;;;;;;5006379;28;20046;-86
2023/04/23 09:15:30;;;;;;;44.13;39.38;;;18.30;1.00;;;;;;4995366;28;20037;-86
2023/04/23 09:17:56;;;;;;;45.95;41.03;;;18.50;99.90;;;;;;4999732;28;20121;-86
2023/04/23 09:20:22;;;;;;;36.05;32.05;;;19.20;99.90;;;;;;4975856;28;20050;-86
2023/04/23 09:22:49;;;;;;;50.75;45.58;;;18.80;1.00;;;;;;4984673;28;20389;-85
2023/04/23 09:25:20;;;;;;;37.13;31.23;;;19.40;99.90;;;;;;4975949;28;20610;-86
2023/04/23 09:27:49;;;;;;;45.10;40.42;;;19.00;1.00;;;;;;4976122;28;20129;-86
2023/04/23 09:30:15;;;;;;;69.57;59.22;;;20.30;99.90;;;;;;4981625;28;20050;-86
2023/04/23 09:32:42;;;;;;;60.75;52.55;;;18.90;99.90;;;;;;5011033;28;20417;-86
2023/04/23 09:35:09;;;;;;;50.55;45.08;;;18.60;1.00;;;;;;5011086;28;20052;-86
2023/04/23 09:37:35;;;;;;;57.38;51.15;;;18.80;99.90;;;;;;4994890;28;20056;-86
2023/04/23 09:40:07;;;;;;;46.55;41.67;;;18.30;1.00;;;;;;4991809;28;20130;-86
2023/04/23 09:42:33;;;;;;;48.50;43.55;;;19.10;99.90;;;;;;5008664;28;20453;-86
2023/04/23 09:45:03;;;;;;;42.17;35.45;;;19.30;99.90;;;;;;4995337;28;20434;-86
2023/04/23 09:47:38;;;;;;;41.35;36.97;;;19.30;1.00;;;;;;5007644;28;20038;-86
2023/04/23 09:50:05;;;;;;;49.60;44.08;;;19.30;99.90;;;;;;5010758;28;20042;-85
2023/04/23 09:52:31;;;;;;;42.10;37.55;;;19.40;99.90;;;;;;5010493;28;20474;-86
2023/04/23 09:54:58;;;;;;;33.47;29.65;;;19.50;99.90;;;;;;4975306;28;20046;-86
2023/04/23 09:57:26;;;;;;;40.38;36.10;;;19.60;99.90;;;;;;4992843;28;20049;-86
2023/04/23 09:59:55;;;;;;;30.70;27.50;;;19.40;99.90;;;;;;4994878;28;20046;-86
2023/04/23 10:02:26;;;;;;;34.33;30.55;;;19.60;1.00;;;;;;4994176;28;20096;-86
2023/04/23 10:04:52;;;;;;;40.00;31.92;;;19.60;1.00;;;;;;4991493;28;20038;-86
2023/04/23 10:07:18;;;;;;;36.15;31.67;;;20.70;1.00;;;;;;4983726;28;20061;-86
2023/04/23 10:09:44;;;;;;;30.73;27.55;;;18.70;12.60;;;;;;4992023;28;20038;-85
2023/04/23 10:12:12;;;;;;;55.70;49.90;;;19.50;99.90;;;;;;4991518;28;20397;-86
2023/04/23 10:14:38;;;;;;;38.30;34.25;;;19.70;99.90;;;;;;4991431;28;20042;-86
2023/04/23 10:17:04;;;;;;;33.03;29.67;;;19.70;1.00;;;;;;4975531;28;20555;-86
2023/04/23 10:19:31;;;;;;;35.78;32.13;;;20.10;1.00;;;;;;4985723;28;20134;-86
2023/04/23 10:22:03;;;;;;;32.28;28.30;;;19.80;99.90;;;;;;4981297;28;20088;-86
2023/04/23 10:24:32;;;;;;;39.35;33.63;;;19.80;99.90;;;;;;4975258;28;20502;-86
2023/04/23 10:27:03;;;;;;;32.50;28.70;;;19.80;99.90;;;;;;4990993;28;20082;-86
2023/04/23 10:29:31;;;;;;;35.47;30.38;;;19.70;45.90;;;;;;4991111;28;20049;-85
2023/04/23 10:31:59;;;;;;;37.28;33.50;;;19.50;31.00;;;;;;4976142;28;20045;-86
2023/04/23 10:34:26;;;;;;;28.90;25.80;;;19.50;5.70;;;;;;5000425;28;20042;-86
2023/04/23 10:36:53;;;;;;;30.60;25.85;;;20.50;29.10;;;;;;5007107;28;20053;-85
2023/04/23 10:39:42;;;;;;;35.33;31.60;;;19.60;52.70;;;;;;4990887;28;20112;-86
2023/04/23 10:42:12;;;;;;;30.48;27.30;;;19.60;1.20;;;;;;4975928;28;20089;-86
2023/04/23 10:44:38;;;;;;;33.88;29.23;;;19.80;1.00;;;;;;5002448;28;20100;-86
2023/04/23 10:47:05;;;;;;;36.45;32.65;;;19.30;1.00;;;;;;4993777;28;20052;-86
2023/04/23 10:49:34;;;;;;;33.08;29.20;;;19.70;1.00;;;;;;4993932;28;20044;-86
2023/04/23 10:52:07;;;;;;;26.25;23.42;;;21.00;1.00;;;;;;4999227;28;20108;-86
2023/04/23 10:54:34;;;;;;;37.13;33.03;;;20.20;1.00;;;;;;4984737;28;20045;-86
2023/04/23 10:57:05;;;;;;;29.73;26.45;;;21.10;1.00;;;;;;4993731;28;20052;-86
2023/04/23 10:59:33;;;;;;;27.83;24.92;;;20.40;1.00;;;;;;5010282;28;20486;-86
2023/04/23 11:02:19;;;;;;;24.65;22.02;;;20.50;99.90;;;;;;4989219;28;20030;-85
2023/04/23 11:04:57;;;;;;;33.88;30.38;;;20.10;1.00;;;;;;4985259;28;20125;-86
2023/04/23 11:07:31;;;;;;;30.08;26.95;;;18.80;99.90;;;;;;4974050;28;20035;-86
2023/04/23 11:10:13;;;;;;;32.35;28.95;;;18.70;99.90;;;;;;4995228;28;20038;-85
2023/04/23 11:12:39;;;;;;;34.80;29.70;;;18.60;1.00;;;;;;5005255;28;20038;-85
2023/04/23 11:15:18;;;;;;;35.28;31.58;;;20.30;1.00;;;;;;5009556;28;20046;-86
2023/04/23 11:17:57;;;;;;;34.33;29.73;;;19.00;1.00;;;;;;4998182;28;20120;-86
2023/04/23 11:20:23;;;;;;;44.53;39.58;;;20.70;1.00;;;;;;4994336;28;20049;-86
2023/04/23 11:22:50;;;;;;;29.60;26.27;;;19.70;1.00;;;;;;4977230;28;20582;-86
2023/04/23 11:25:35;;;;;;;29.00;26.08;;;19.00;99.90;;;;;;4990150;28;20494;-86
2023/04/23 11:28:01;;;;;;;29.30;23.63;;;19.60;99.90;;;;;;4984082;28;20042;-86
2023/04/23 11:30:28;;;;;;;32.42;21.60;;;20.90;99.90;;;;;;4997708;28;20065;-86
2023/04/23 11:32:55;;;;;;;27.45;24.55;;;20.40;99.90;;;;;;4980891;28;20047;-85
2023/04/23 11:35:27;;;;;;;26.95;24.23;;;19.70;99.90;;;;;;4990236;28;20034;-86
2023/04/23 11:37:52;;;;;;;31.52;26.00;;;19.10;99.90;;;;;;4973546;28;20050;-86
2023/04/23 11:40:18;;;;;;;22.92;20.10;;;19.60;99.90;;;;;;4989919;28;20076;-86
2023/04/23 11:42:53;;;;;;;27.60;23.85;;;18.70;99.90;;;;;;4987063;28;20095;-86
2023/04/23 11:45:24;;;;;;;23.52;20.98;;;18.60;99.90;;;;;;4991200;28;20042;-85
2023/04/23 11:47:54;;;;;;;22.98;20.42;;;18.50;99.90;;;;;;4989772;28;20523;-85
2023/04/23 11:50:25;;;;;;;21.65;13.23;;;18.50;99.90;;;;;;4989445;28;20053;-85
2023/04/23 11:52:54;;;;;;;22.02;17.35;;;18.50;99.90;;;;;;4993333;28;20038;-85
2023/04/23 11:55:21;;;;;;;21.63;13.80;;;19.30;99.90;;;;;;4989622;28;20050;-85
2023/04/23 11:57:48;;;;;;;27.73;23.23;;;18.90;99.90;;;;;;4990632;28;20042;-85
2023/04/23 12:00:17;;;;;;;19.50;14.35;;;19.70;99.90;;;;;;4991999;28;20092;-85
2023/04/23 12:03:00;;;;;;;18.33;15.35;;;19.00;99.90;;;;;;4989280;28;20054;-85
2023/04/23 12:05:35;;;;;;;19.15;17.17;;;20.80;99.90;;;;;;4988827;28;20074;-85
2023/04/23 12:08:18;;;;;;;29.63;26.50;;;19.40;99.90;;;;;;4973002;28;20048;-85
2023/04/23 12:10:52;;;;;;;25.98;23.25;;;20.20;99.90;;;;;;4974541;28;20049;-85
2023/04/23 12:13:23;;;;;;;20.27;18.27;;;19.30;51.60;;;;;;4994291;28;20490;-85
2023/04/23 12:15:51;;;;;;;22.73;18.20;;;19.80;1.00;;;;;;5008701;28;20045;-85
2023/04/23 12:18:18;;;;;;;23.80;19.80;;;19.70;1.00;;;;;;4993998;28;20034;-85
2023/04/23 12:20:45;;;;;;;22.13;19.52;;;19.20;1.00;;;;;;4989915;28;20486;-86
2023/04/23 12:23:11;;;;;;;27.35;21.80;;;19.10;1.00;;;;;;4992574;28;20037;-85